Time;durP1;ratioP1;P1;durP2;ratioP2;P2;SDS_P1;SDS_P2;PMS_P1;PMS_P2;Temp;Humidity;BMP_temperature;BMP_pressure;BME280_temperature;BME280_humidity;BME280_pressure;Samples;Min_cycle;Max_cycle;Signal;HPM_P1;HPM_P2
2022/01/22 00:01:09;;;;;;;21.52;2.47;;;;;;;;;;5093472;28;20361;-64
2022/01/22 00:03:36;;;;;;;22.08;2.17;;;;;;;;;;5080262;28;20131;-64
2022/01/22 00:06:02;;;;;;;12.38;1.52;;;;;;;;;;5070686;28;20059;-64
2022/01/22 00:08:28;;;;;;;13.52;2.47;;;;;;;;;;5092690;28;20038;-64
2022/01/22 00:10:54;;;;;;;20.90;3.00;;;;;;;;;;5070417;28;20110;-64
2022/01/22 00:16:05;;;;;;;24.63;2.65;;;;;;;;;;5074847;28;20041;-64
2022/01/22 00:18:31;;;;;;;20.13;2.80;;;;;;;;;;5052117;28;20043;-64
2022/01/22 00:20:57;;;;;;;12.70;3.03;;;;;;;;;;5073654;28;20076;-64
2022/01/22 00:23:26;;;;;;;25.95;2.28;;;;;;;;;;5079263;28;20106;-64
2022/01/22 00:25:52;;;;;;;15.32;3.08;;;;;;;;;;5058528;28;20050;-64
2022/01/22 00:28:18;;;;;;;20.95;2.28;;;;;;;;;;5082628;28;20043;-64
2022/01/22 00:30:45;;;;;;;18.95;2.40;;;;;;;;;;5084986;28;20067;-64
2022/01/22 00:33:11;;;;;;;18.73;3.13;;;;;;;;;;5089991;28;20098;-64
2022/01/22 00:35:37;;;;;;;18.13;3.08;;;;;;;;;;5063189;28;20105;-64
2022/01/22 00:38:03;;;;;;;18.85;3.55;;;;;;;;;;5077265;28;20039;-64
2022/01/22 00:40:29;;;;;;;17.63;1.98;;;;;;;;;;5066679;28;20036;-64
2022/01/22 00:42:55;;;;;;;21.08;3.20;;;;;;;;;;5082047;28;20059;-64
2022/01/22 00:45:21;;;;;;;17.02;2.28;;;;;;;;;;5068993;28;20045;-64
2022/01/22 00:47:48;;;;;;;17.67;2.13;;;;;;;;;;5077776;28;20045;-64
2022/01/22 00:50:15;;;;;;;16.30;2.15;;;;;;;;;;5071603;28;20075;-64
2022/01/22 00:52:42;;;;;;;15.55;2.50;;;;;;;;;;5070730;28;20036;-64
2022/01/22 00:55:08;;;;;;;14.02;1.50;;;;;;;;;;5083483;28;20448;-68
2022/01/22 00:57:34;;;;;;;14.77;1.50;;;;;;;;;;5068027;28;20050;-64
2022/01/22 01:00:00;;;;;;;16.10;2.28;;;;;;;;;;5082888;28;20127;-64
2022/01/22 01:02:26;;;;;;;19.25;2.13;;;;;;;;;;5060091;28;20140;-64
2022/01/22 01:04:52;;;;;;;20.00;3.13;;;;;;;;;;5041072;28;20045;-60
2022/01/22 01:07:18;;;;;;;10.65;1.73;;;;;;;;;;5028918;28;20477;-64
2022/01/22 01:09:44;;;;;;;14.85;2.35;;;;;;;;;;5070953;28;20052;-63
2022/01/22 01:12:12;;;;;;;16.10;2.72;;;;;;;;;;5061217;28;20063;-64
2022/01/22 01:14:45;;;;;;;22.42;2.20;;;;;;;;;;5069674;28;20052;-64
2022/01/22 01:17:34;;;;;;;17.45;1.83;;;;;;;;;;5083348;28;20040;-64
2022/01/22 01:36:21;;;;;;;23.35;4.22;;;;;;;;;;5031946;28;20519;-64
2022/01/22 01:38:53;;;;;;;20.58;2.00;;;;;;;;;;5032182;28;20048;-64
2022/01/22 01:41:35;;;;;;;13.88;2.65;;;;;;;;;;5017929;28;20130;-63
2022/01/22 01:44:01;;;;;;;12.85;2.38;;;;;;;;;;5033520;28;20063;-64
2022/01/22 01:46:30;;;;;;;16.45;2.10;;;;;;;;;;5014400;28;20521;-64
2022/01/22 01:48:57;;;;;;;13.75;1.90;;;;;;;;;;5031966;28;20045;-64
2022/01/22 01:51:26;;;;;;;24.77;2.53;;;;;;;;;;5014299;28;20041;-63
2022/01/22 01:54:05;;;;;;;13.80;1.88;;;;;;;;;;5032661;28;20548;-63
2022/01/22 01:57:27;;;;;;;26.58;2.53;;;;;;;;;;5031287;28;20045;-63
2022/01/22 01:59:23;;;;;;;17.67;2.17;;;;;;;;;;5031700;28;20124;-63
2022/01/22 02:01:49;;;;;;;20.58;3.42;;;;;;;;;;5030302;28;20137;-63
2022/01/22 02:04:15;;;;;;;13.88;2.17;;;;;;;;;;5030036;28;20043;-63
2022/01/22 02:06:42;;;;;;;23.75;3.38;;;;;;;;;;5044447;28;20064;-64
2022/01/22 02:09:09;;;;;;;27.13;2.88;;;;;;;;;;5076107;28;20069;-60
2022/01/22 02:11:36;;;;;;;16.27;1.90;;;;;;;;;;5072899;28;20074;-63
2022/01/22 02:23:29;;;;;;;11.90;1.85;;;;;;;;;;5091653;28;20054;-64
2022/01/22 02:25:08;;;;;;;19.23;3.10;;;;;;;;;;5076505;28;20087;-64
2022/01/22 02:27:34;;;;;;;13.10;1.55;;;;;;;;;;5082028;28;20036;-63
2022/01/22 02:30:00;;;;;;;10.70;1.95;;;;;;;;;;5079421;28;20032;-64
2022/01/22 02:34:59;;;;;;;14.07;2.42;;;;;;;;;;5089715;28;20046;-63
2022/01/22 02:37:31;;;;;;;9.13;1.25;;;;;;;;;;5091101;28;20103;-64
2022/01/22 02:40:24;;;;;;;9.45;2.38;;;;;;;;;;5080178;28;20051;-64
2022/01/22 02:42:46;;;;;;;10.23;1.10;;;;;;;;;;5074347;28;20480;-64
2022/01/22 02:45:17;;;;;;;10.13;1.52;;;;;;;;;;5090511;28;20130;-64
2022/01/22 02:47:43;;;;;;;13.73;1.83;;;;;;;;;;5091349;28;20036;-64
2022/01/22 02:50:10;;;;;;;10.15;1.20;;;;;;;;;;5085378;28;20055;-61
2022/01/22 02:52:36;;;;;;;11.43;1.10;;;;;;;;;;5073546;28;20051;-63
2022/01/22 02:55:05;;;;;;;6.65;0.85;;;;;;;;;;5075559;28;20044;-63
2022/01/22 02:57:32;;;;;;;9.93;0.90;;;;;;;;;;5093173;28;20036;-64
2022/01/22 03:00:00;;;;;;;9.27;0.93;;;;;;;;;;5092340;28;20044;-63
2022/01/22 03:02:26;;;;;;;8.25;1.20;;;;;;;;;;5068003;28;20372;-63
2022/01/22 03:04:52;;;;;;;8.18;1.00;;;;;;;;;;5091049;28;20047;-63
2022/01/22 03:07:18;;;;;;;8.05;1.10;;;;;;;;;;5093886;28;20036;-63
2022/01/22 03:09:47;;;;;;;13.10;2.17;;;;;;;;;;5085554;28;20488;-63
2022/01/22 03:15:26;;;;;;;12.85;1.25;;;;;;;;;;5086025;28;20040;-63
2022/01/22 03:27:51;;;;;;;9.98;1.45;;;;;;;;;;5091849;28;20083;-63
2022/01/22 03:30:17;;;;;;;9.98;1.75;;;;;;;;;;5093420;28;20059;-63
2022/01/22 03:32:47;;;;;;;8.27;1.80;;;;;;;;;;5075778;28;20056;-63
2022/01/22 03:37:48;;;;;;;8.90;1.27;;;;;;;;;;5073353;28;20040;-63
2022/01/22 03:40:15;;;;;;;5.07;1.25;;;;;;;;;;5073599;28;20051;-63
2022/01/22 03:42:41;;;;;;;13.23;1.52;;;;;;;;;;5070088;28;20041;-64
2022/01/22 03:45:09;;;;;;;10.73;1.95;;;;;;;;;;5078173;28;20044;-63
2022/01/22 03:47:35;;;;;;;17.52;1.48;;;;;;;;;;5092769;28;20036;-63
2022/01/22 03:50:01;;;;;;;9.88;1.33;;;;;;;;;;5058955;28;20043;-64
2022/01/22 03:52:27;;;;;;;9.43;1.55;;;;;;;;;;5077023;28;20054;-63
2022/01/22 03:54:53;;;;;;;5.57;0.93;;;;;;;;;;5068368;28;20040;-63
2022/01/22 03:57:22;;;;;;;14.60;2.05;;;;;;;;;;5079895;28;20037;-62
2022/01/22 03:59:49;;;;;;;9.90;1.63;;;;;;;;;;5094633;28;20036;-62
2022/01/22 04:02:55;;;;;;;7.60;1.30;;;;;;;;;;5096521;28;20361;-63
2022/01/22 04:05:10;;;;;;;9.02;1.48;;;;;;;;;;5085546;28;20067;-63
2022/01/22 04:10:04;;;;;;;5.82;1.50;;;;;;;;;;5090649;28;20135;-63
2022/01/22 04:15:19;;;;;;;6.18;1.17;;;;;;;;;;5096466;28;20063;-62
2022/01/22 04:26:12;;;;;;;13.05;2.05;;;;;;;;;;5075940;28;20081;-62
2022/01/22 04:28:38;;;;;;;8.02;1.52;;;;;;;;;;5076122;28;20122;-63
2022/01/22 04:31:04;;;;;;;8.27;1.58;;;;;;;;;;5086483;28;20510;-63
2022/01/22 04:33:30;;;;;;;11.77;1.88;;;;;;;;;;5090700;28;20056;-62
2022/01/22 04:35:56;;;;;;;9.88;2.03;;;;;;;;;;5082726;28;20066;-63
2022/01/22 04:38:22;;;;;;;6.80;1.55;;;;;;;;;;5088919;28;20482;-63
2022/01/22 04:40:48;;;;;;;6.65;1.55;;;;;;;;;;5079458;28;20036;-63
2022/01/22 04:43:14;;;;;;;8.45;1.67;;;;;;;;;;5077902;28;20076;-62
2022/01/22 04:46:04;;;;;;;8.63;1.40;;;;;;;;;;5095818;28;20137;-63
2022/01/22 04:48:51;;;;;;;3.22;1.25;;;;;;;;;;5086502;28;20097;-63
2022/01/22 04:56:57;;;;;;;5.47;1.10;;;;;;;;;;5010789;28;20054;-64
2022/01/22 04:59:23;;;;;;;5.00;0.98;;;;;;;;;;5033205;28;20060;-62
2022/01/22 05:01:49;;;;;;;7.05;1.10;;;;;;;;;;5032025;28;20053;-63
2022/01/22 05:04:15;;;;;;;3.30;1.00;;;;;;;;;;5100510;22;20075;-62
2022/01/22 05:06:41;;;;;;;3.25;1.45;;;;;;;;;;5095971;28;20044;-63
2022/01/22 05:09:07;;;;;;;5.97;1.60;;;;;;;;;;5095383;28;20426;-63
2022/01/22 05:11:33;;;;;;;7.50;2.28;;;;;;;;;;5091521;28;20040;-62
2022/01/22 05:13:59;;;;;;;7.53;2.35;;;;;;;;;;5078228;28;20040;-63
2022/01/22 05:16:25;;;;;;;8.98;2.25;;;;;;;;;;5094906;28;20357;-62
2022/01/22 05:19:00;;;;;;;7.57;2.20;;;;;;;;;;5076677;28;20088;-63
2022/01/22 05:21:28;;;;;;;10.38;2.40;;;;;;;;;;5100695;28;20040;-63
2022/01/22 05:23:57;;;;;;;14.30;3.20;;;;;;;;;;5105636;28;20120;-62
2022/01/22 05:27:24;;;;;;;16.17;3.08;;;;;;;;;;5095346;28;20043;-62
2022/01/22 05:37:13;;;;;;;6.47;2.55;;;;;;;;;;5055872;28;20055;-62
2022/01/22 05:39:39;;;;;;;15.93;3.00;;;;;;;;;;5075902;28;20480;-63
2022/01/22 05:42:07;;;;;;;12.05;3.28;;;;;;;;;;5094083;28;20044;-63
2022/01/22 05:44:35;;;;;;;11.05;3.13;;;;;;;;;;5095258;28;20110;-63
2022/01/22 05:47:05;;;;;;;14.30;2.60;;;;;;;;;;5096177;28;20047;-62
2022/01/22 05:49:33;;;;;;;11.27;2.95;;;;;;;;;;5094045;28;20043;-63
2022/01/22 05:52:02;;;;;;;8.40;3.25;;;;;;;;;;5091459;28;20043;-62
2022/01/22 05:59:39;;;;;;;11.95;2.72;;;;;;;;;;5092987;28;20480;-62
2022/01/22 06:02:06;;;;;;;10.05;2.78;;;;;;;;;;5072880;28;20040;-62
2022/01/22 06:04:32;;;;;;;11.23;2.33;;;;;;;;;;5076908;28;20166;-62
2022/01/22 06:06:59;;;;;;;12.07;2.90;;;;;;;;;;5094841;28;20043;-63
2022/01/22 06:09:25;;;;;;;12.73;2.63;;;;;;;;;;5076246;28;20044;-64
2022/01/22 06:11:58;;;;;;;15.70;4.53;;;;;;;;;;5065487;28;20517;-63
2022/01/22 06:14:24;;;;;;;15.57;3.90;;;;;;;;;;5055038;28;20431;-62
2022/01/22 06:16:50;;;;;;;14.93;3.33;;;;;;;;;;5074161;28;20465;-62
2022/01/22 06:19:16;;;;;;;7.03;2.20;;;;;;;;;;5070471;28;20381;-62
2022/01/22 06:21:42;;;;;;;13.52;3.15;;;;;;;;;;5070691;28;20040;-63
2022/01/22 06:24:08;;;;;;;4.63;2.17;;;;;;;;;;5054779;28;20059;-62
2022/01/22 06:26:35;;;;;;;11.23;2.33;;;;;;;;;;5063779;28;20389;-62
2022/01/22 06:29:02;;;;;;;16.63;2.80;;;;;;;;;;5073524;28;20063;-62
2022/01/22 06:31:28;;;;;;;8.93;2.03;;;;;;;;;;5072257;28;20118;-62
2022/01/22 06:33:54;;;;;;;11.75;3.13;;;;;;;;;;5055662;28;20477;-62
2022/01/22 06:36:20;;;;;;;9.05;2.03;;;;;;;;;;5065119;28;20047;-62
2022/01/22 06:38:46;;;;;;;8.23;2.00;;;;;;;;;;5061178;28;20043;-58
2022/01/22 06:43:56;;;;;;;6.00;2.03;;;;;;;;;;5053600;28;20128;-62
2022/01/22 06:46:22;;;;;;;9.40;2.65;;;;;;;;;;5036477;28;20230;-62
2022/01/22 06:48:48;;;;;;;8.35;1.90;;;;;;;;;;5038639;28;20079;-62
2022/01/22 06:51:15;;;;;;;11.65;2.10;;;;;;;;;;5071855;28;20080;-62
2022/01/22 06:53:41;;;;;;;11.65;2.30;;;;;;;;;;5074077;28;20076;-62
2022/01/22 06:56:09;;;;;;;13.68;1.83;;;;;;;;;;5071255;28;20086;-62
2022/01/22 06:58:35;;;;;;;7.97;1.77;;;;;;;;;;5073969;28;20044;-62
2022/01/22 07:01:01;;;;;;;10.77;2.03;;;;;;;;;;5070961;28;20037;-64
2022/01/22 07:03:27;;;;;;;7.75;1.92;;;;;;;;;;5073303;28;20057;-62
2022/01/22 07:05:53;;;;;;;12.98;2.03;;;;;;;;;;5064489;28;20431;-62
2022/01/22 07:08:19;;;;;;;8.57;2.28;;;;;;;;;;5053993;28;20124;-62
2022/01/22 07:10:45;;;;;;;9.40;1.67;;;;;;;;;;5038162;28;20175;-62
2022/01/22 07:13:11;;;;;;;12.90;1.63;;;;;;;;;;5066702;28;20079;-62
2022/01/22 07:15:37;;;;;;;10.18;1.92;;;;;;;;;;5065127;28;20067;-65
2022/01/22 07:18:04;;;;;;;5.95;1.52;;;;;;;;;;5060353;28;20036;-63
2022/01/22 07:20:33;;;;;;;8.75;1.85;;;;;;;;;;5072269;28;20066;-63
2022/01/22 07:23:04;;;;;;;9.05;2.00;;;;;;;;;;5062440;28;20118;-63
2022/01/22 07:25:30;;;;;;;7.18;1.92;;;;;;;;;;5098212;28;20399;-62
2022/01/22 07:27:56;;;;;;;10.93;2.15;;;;;;;;;;5078685;28;20036;-62
2022/01/22 07:30:23;;;;;;;3.88;1.67;;;;;;;;;;5061173;28;20059;-62
2022/01/22 07:32:49;;;;;;;8.32;1.77;;;;;;;;;;5044387;28;20037;-62
2022/01/22 07:35:17;;;;;;;8.30;1.80;;;;;;;;;;5084145;28;20427;-62
2022/01/22 07:37:43;;;;;;;7.22;1.85;;;;;;;;;;5077339;28;20440;-62
2022/01/22 07:40:10;;;;;;;8.73;1.90;;;;;;;;;;5076190;28;20047;-62
2022/01/22 07:42:37;;;;;;;9.43;1.58;;;;;;;;;;5077330;28;20360;-65
2022/01/22 07:45:04;;;;;;;7.82;2.03;;;;;;;;;;5059035;28;20076;-62
2022/01/22 07:47:30;;;;;;;6.57;2.10;;;;;;;;;;5066941;28;20080;-61
2022/01/22 07:49:56;;;;;;;8.13;1.88;;;;;;;;;;5096853;28;20040;-61
2022/01/22 07:52:23;;;;;;;6.80;2.20;;;;;;;;;;5095931;28;20044;-61
2022/01/22 07:54:49;;;;;;;6.90;1.90;;;;;;;;;;5096806;28;20197;-60
2022/01/22 07:57:15;;;;;;;7.43;2.25;;;;;;;;;;5076862;28;20101;-61
2022/01/22 07:59:41;;;;;;;10.07;2.65;;;;;;;;;;5077220;28;20059;-62
2022/01/22 08:02:07;;;;;;;9.80;3.60;;;;;;;;;;5077977;28;20048;-63
2022/01/22 08:04:34;;;;;;;11.45;3.17;;;;;;;;;;5096862;28;20063;-60
2022/01/22 08:07:01;;;;;;;11.48;3.20;;;;;;;;;;5096000;28;20496;-61
2022/01/22 08:09:27;;;;;;;12.00;3.08;;;;;;;;;;5079199;28;20040;-60
2022/01/22 08:11:53;;;;;;;14.90;3.00;;;;;;;;;;5095321;28;20036;-61
2022/01/22 08:14:19;;;;;;;15.70;2.85;;;;;;;;;;5096484;28;20047;-61
2022/01/22 08:16:47;;;;;;;13.10;2.90;;;;;;;;;;5096336;28;20035;-60
2022/01/22 08:19:14;;;;;;;16.83;3.53;;;;;;;;;;5086111;28;20047;-60
2022/01/22 08:21:40;;;;;;;19.80;3.85;;;;;;;;;;5058164;28;20124;-60
2022/01/22 08:24:07;;;;;;;12.93;3.20;;;;;;;;;;5094518;28;20036;-60
2022/01/22 08:26:37;;;;;;;12.27;3.25;;;;;;;;;;5096163;28;20444;-60
2022/01/22 08:29:03;;;;;;;14.80;2.92;;;;;;;;;;5096222;28;20044;-60
2022/01/22 08:36:45;;;;;;;15.82;3.17;;;;;;;;;;5090643;28;20060;-61
2022/01/22 08:39:11;;;;;;;14.68;3.67;;;;;;;;;;5057328;28;20436;-60
2022/01/22 08:41:37;;;;;;;16.70;3.35;;;;;;;;;;5068320;28;20040;-60
2022/01/22 08:44:04;;;;;;;15.93;3.38;;;;;;;;;;5078025;28;20035;-60
2022/01/22 08:46:31;;;;;;;17.52;3.30;;;;;;;;;;5076295;28;20066;-60
2022/01/22 08:48:57;;;;;;;14.52;3.28;;;;;;;;;;5083330;28;20484;-60
2022/01/22 08:51:23;;;;;;;17.50;3.03;;;;;;;;;;5096207;28;20036;-64
2022/01/22 08:53:49;;;;;;;23.48;3.83;;;;;;;;;;5075990;28;20039;-61
2022/01/22 08:56:16;;;;;;;16.65;3.17;;;;;;;;;;5091393;28;20044;-64
2022/01/22 08:58:42;;;;;;;12.23;2.83;;;;;;;;;;5093725;28;20468;-61
2022/01/22 09:01:09;;;;;;;13.57;5.00;;;;;;;;;;5064553;28;20377;-61
2022/01/22 09:03:35;;;;;;;14.23;3.58;;;;;;;;;;5080888;28;20091;-61
2022/01/22 09:06:03;;;;;;;14.38;3.40;;;;;;;;;;5098834;28;20484;-59
2022/01/22 09:08:29;;;;;;;13.57;3.45;;;;;;;;;;5111619;28;20115;-61
2022/01/22 09:10:55;;;;;;;16.10;3.38;;;;;;;;;;5095725;28;20090;-61
2022/01/22 09:13:22;;;;;;;16.25;3.97;;;;;;;;;;5094698;28;20040;-60
2022/01/22 09:15:49;;;;;;;14.68;4.18;;;;;;;;;;5082352;28;20040;-61
2022/01/22 09:18:15;;;;;;;13.63;4.07;;;;;;;;;;5094273;28;20036;-61
2022/01/22 09:23:07;;;;;;;16.55;3.83;;;;;;;;;;5095047;28;20048;-61
2022/01/22 09:25:34;;;;;;;10.18;3.35;;;;;;;;;;5097572;28;20044;-61
2022/01/22 09:28:00;;;;;;;18.00;3.90;;;;;;;;;;5111402;28;20047;-61
2022/01/22 09:30:26;;;;;;;23.45;6.63;;;;;;;;;;5096991;28;20036;-61
2022/01/22 09:32:53;;;;;;;20.67;3.92;;;;;;;;;;5090240;28;20044;-61
2022/01/22 09:35:19;;;;;;;12.65;3.30;;;;;;;;;;5077144;28;20050;-61
2022/01/22 09:37:46;;;;;;;19.40;3.58;;;;;;;;;;5076124;28;20119;-61
2022/01/22 09:40:12;;;;;;;22.10;3.55;;;;;;;;;;5093952;28;20040;-61
2022/01/22 09:42:39;;;;;;;14.85;4.43;;;;;;;;;;5076218;28;20076;-62
2022/01/22 09:45:06;;;;;;;14.52;3.95;;;;;;;;;;5094905;28;20076;-61
2022/01/22 09:47:32;;;;;;;17.65;4.10;;;;;;;;;;5076444;28;20036;-61
2022/01/22 09:49:58;;;;;;;15.73;5.20;;;;;;;;;;5094758;28;20043;-62
2022/01/22 09:52:25;;;;;;;11.57;4.03;;;;;;;;;;5102202;28;20086;-62
2022/01/22 09:54:50;;;;;;;18.38;4.88;;;;;;;;;;5093943;28;20096;-61
2022/01/22 09:57:17;;;;;;;16.42;5.50;;;;;;;;;;5099626;28;20040;-63
2022/01/22 09:59:43;;;;;;;21.00;8.18;;;;;;;;;;5113832;28;20047;-62
2022/01/22 10:02:19;;;;;;;23.45;8.10;;;;;;;;;;5097344;28;20081;-62
2022/01/22 10:04:48;;;;;;;20.58;6.63;;;;;;;;;;5083058;28;20040;-62
2022/01/22 10:07:17;;;;;;;23.10;6.63;;;;;;;;;;5073881;28;20476;-62
2022/01/22 10:09:55;;;;;;;16.13;4.97;;;;;;;;;;5073453;28;20120;-63
2022/01/22 10:12:22;;;;;;;19.58;4.65;;;;;;;;;;5075321;28;20039;-64
2022/01/22 10:15:15;;;;;;;19.73;4.88;;;7.20;99.90;;;;;;5082913;28;20100;-62
2022/01/22 10:17:46;;;;;;;15.93;4.72;;;;;;;;;;5093373;28;20044;-62
2022/01/22 10:20:24;;;;;;;13.93;4.50;;;;;;;;;;5093199;28;20044;-62
2022/01/22 10:22:55;;;;;;;16.20;3.80;;;;;;;;;;5093353;28;20040;-63
2022/01/22 10:25:21;;;;;;;;;;;7.30;99.90;;;;;;5079239;28;20468;-62
2022/01/22 10:28:22;;;;;;;15.18;4.15;;;;;;;;;;5091677;28;20363;-62
2022/01/22 10:30:52;;;;;;;15.02;5.22;;;;;;;;;;5102537;28;20479;-62
2022/01/22 10:33:33;;;;;;;12.55;3.95;;;;;;;;;;5095734;28;20047;-62
2022/01/22 10:36:26;;;;;;;15.32;4.47;;;;;;;;;;5088951;28;20471;-62
2022/01/22 10:38:53;;;;;;;8.95;3.28;;;;;;;;;;5098397;28;20128;-62
2022/01/22 10:41:32;;;;;;;16.90;3.42;;;;;;;;;;5089340;28;20040;-62
2022/01/22 10:44:01;;;;;;;13.90;3.63;;;;;;;;;;5101108;28;20028;-63
2022/01/22 10:46:43;;;;;;;9.85;3.47;;;;;;;;;;5102315;28;20040;-62
2022/01/22 10:49:10;;;;;;;18.17;3.67;;;;;;;;;;5098502;28;20075;-62
2022/01/22 10:51:59;;;;;;;15.68;4.05;;;;;;;;;;5076399;28;20043;-63
2022/01/22 10:54:30;;;;;;;12.70;4.03;;;;;;;;;;5109223;28;20110;-62
2022/01/22 10:57:10;;;;;;;13.48;3.67;;;;;;;;;;5070969;28;20032;-63
2022/01/22 10:59:36;;;;;;;17.48;6.88;;;;;;;;;;5104034;28;20127;-66
2022/01/22 11:02:03;;;;;;;14.10;3.78;;;;;;;;;;5091387;28;20070;-62
2022/01/22 11:04:39;;;;;;;15.18;4.78;;;;;;;;;;5106651;28;20052;-65
2022/01/22 11:07:06;;;;;;;16.67;4.00;;;;;;;;;;5088407;28;20044;-63
2022/01/22 11:09:33;;;;;;;10.40;3.45;;;;;;;;;;5089669;28;20044;-62
2022/01/22 11:17:24;;;;;;;10.38;2.75;;;;;;;;;;5069724;28;20056;-62
2022/01/22 11:19:51;;;;;;;11.63;2.33;;;;;;;;;;5073684;28;20055;-62
2022/01/22 11:22:18;;;;;;;9.93;2.63;;;;;;;;;;5066336;28;20041;-63
2022/01/22 11:30:57;;;;;;;13.02;4.90;;;;;;;;;;4913607;22;20052;-63
2022/01/22 11:33:24;;;;;;;22.45;6.78;;;;;;;;;;5067230;28;20122;-63
2022/01/22 11:35:56;;;;;;;17.08;8.18;;;;;;;;;;5097219;28;20129;-63
2022/01/22 11:38:35;;;;;;;12.80;5.68;;;;;;;;;;5094840;28;20123;-62
2022/01/22 11:41:06;;;;;;;12.38;5.00;;;;;;;;;;5092177;28;20040;-62
2022/01/22 11:44:17;;;;;;;12.00;4.43;;;7.70;99.90;;;;;;5093528;28;20040;-62
2022/01/22 11:46:44;;;;;;;10.30;4.00;;;;;;;;;;5081681;28;20048;-60
2022/01/22 11:49:16;;;;;;;14.80;3.92;;;;;;;;;;5095578;28;20056;-63
2022/01/22 11:51:43;;;;;;;9.90;2.92;;;;;;;;;;5077033;28;20044;-63
2022/01/22 11:54:09;;;;;;;9.68;2.25;;;;;;;;;;5095681;28;20040;-62
2022/01/22 11:56:46;;;;;;;11.85;2.20;;;;;;;;;;5094469;28;20125;-62
2022/01/22 11:59:12;;;;;;;11.10;2.53;;;;;;;;;;5060473;28;20044;-62
2022/01/22 12:01:52;;;;;;;11.00;2.45;;;;;;;;;;5074308;28;20045;-62
2022/01/22 12:04:22;;;;;;;6.22;1.85;;;;;;;;;;5095771;28;20051;-62
2022/01/22 12:07:03;;;;;;;8.68;2.00;;;;;;;;;;5075581;28;20044;-62
2022/01/22 12:09:31;;;;;;;12.40;1.80;;;;;;;;;;5059663;28;20350;-62
2022/01/22 12:14:50;;;;;;;20.23;2.30;;;;;;;;;;5095495;28;20540;-62
2022/01/22 12:17:27;;;;;;;20.08;3.58;;;;;;;;;;5095987;28;20438;-62
2022/01/22 12:20:16;;;;;;;12.43;2.90;;;;;;;;;;5095205;28;20040;-62
2022/01/22 12:22:39;;;;;;;14.73;2.28;;;;;;;;;;5092038;28;20139;-62
2022/01/22 12:25:08;;;;;;;17.58;3.67;;;;;;;;;;5077942;28;20071;-62
2022/01/22 12:27:50;;;;;;;12.80;1.95;;;;;;;;;;5078623;28;20036;-62
2022/01/22 12:30:18;;;;;;;11.18;2.58;;;;;;;;;;5095085;28;20056;-62
2022/01/22 12:32:44;;;;;;;16.52;4.68;;;;;;;;;;5095300;28;20044;-62
2022/01/22 12:35:14;;;;;;;17.55;3.70;;;;;;;;;;5079061;22;20095;-62
2022/01/22 12:37:40;;;;;;;14.07;3.10;;;;;;;;;;5075337;28;20054;-62
2022/01/22 12:40:07;;;;;;;13.15;2.60;;;;;;;;;;5057874;28;20161;-62
2022/01/22 12:43:03;;;;;;;11.77;2.03;;;;;;;;;;5075573;28;20131;-61
2022/01/22 12:45:29;;;;;;;5.47;1.75;;;;;;;;;;5051913;28;20055;-63
2022/01/22 12:47:55;;;;;;;5.63;1.85;;;;;;;;;;5097814;22;20048;-62
2022/01/22 12:50:26;;;;;;;9.35;2.65;;;;;;;;;;5094681;28;20379;-62
2022/01/22 12:52:52;;;;;;;14.35;2.47;;;;;;;;;;5094411;28;20047;-63
2022/01/22 12:55:20;;;;;;;11.27;3.10;;;;;;;;;;5095250;28;20051;-62
2022/01/22 12:57:46;;;;;;;9.38;2.40;;;;;;;;;;5095552;28;20106;-61
2022/01/22 13:00:15;;;;;;;9.95;2.10;;;;;;;;;;5095168;28;20044;-62
2022/01/22 13:02:42;;;;;;;8.80;1.20;;;;;;;;;;5076791;28;20498;-63
2022/01/22 13:05:10;;;;;;;9.32;1.90;;;;;;;;;;5095092;28;20404;-62
2022/01/22 13:07:51;;;;;;;10.00;2.65;;;;;;;;;;5095475;28;20042;-59
2022/01/22 13:10:18;;;;;;;14.80;6.05;;;;;;;;;;5068255;28;20067;-62
2022/01/22 13:12:45;;;;;;;11.93;4.90;;;;;;;;;;5097284;28;20046;-62
2022/01/22 13:15:11;;;;;;;9.45;2.40;;;;;;;;;;5095221;28;20039;-62
2022/01/22 13:17:38;;;;;;;11.05;3.00;;;;;;;;;;5093751;28;20441;-62
2022/01/22 13:20:05;;;;;;;10.48;2.10;;;;;;;;;;5094843;28;20390;-62
2022/01/22 13:22:32;;;;;;;18.60;6.35;;;;;;;;;;5095097;28;20101;-62
2022/01/22 13:25:07;;;;;;;17.08;2.45;;;;;;;;;;5094268;28;20040;-61
2022/01/22 13:27:33;;;;;;;14.35;2.55;;;;;;;;;;5094741;28;20086;-61
2022/01/22 13:29:59;;;;;;;9.52;2.83;;;;;;;;;;5094539;28;20087;-62
2022/01/22 13:48:58;;;;;;;12.90;1.70;;;;;;;;;;5094460;28;20040;-62
2022/01/22 13:51:24;;;;;;;7.10;1.60;;;;;;;;;;5094504;28;20109;-62
2022/01/22 13:53:50;;;;;;;11.65;1.58;;;;;;;;;;5093702;28;20028;-61
2022/01/22 13:56:17;;;;;;;10.40;1.50;;;;;;;;;;5075369;28;20487;-62
2022/01/22 13:58:43;;;;;;;3.55;1.40;;;;;;;;;;5094177;28;20047;-61
2022/01/22 14:01:17;;;;;;;7.82;1.77;;;;;;;;;;5094079;28;20415;-62
2022/01/22 14:03:45;;;;;;;6.57;1.35;;;;;;;;;;5093486;28;20032;-61
2022/01/22 14:06:11;;;;;;;11.85;1.50;;;;;;;;;;5093938;28;20089;-61
2022/01/22 14:08:38;;;;;;;4.05;1.00;;;;;;;;;;5093593;28;20043;-62
2022/01/22 14:11:04;;;;;;;6.30;1.23;;;;;;;;;;5092655;28;20127;-61
2022/01/22 14:13:31;;;;;;;3.88;1.23;;;;;;;;;;5093236;28;20118;-61
2022/01/22 14:15:57;;;;;;;4.65;1.30;;;;;;;;;;5092817;28;20429;-62
2022/01/22 14:18:24;;;;;;;5.10;1.05;;;;;;;;;;5101577;28;20075;-61
2022/01/22 14:20:54;;;;;;;5.15;1.00;;;;;;;;;;5095514;28;20047;-61
2022/01/22 14:23:20;;;;;;;;;;;;;;;;;;5113908;28;20050;-61
2022/01/22 14:25:54;;;;;;;5.68;1.10;;;;;;;;;;5092472;28;19916;-61
2022/01/22 14:28:21;;;;;;;5.72;2.17;;;;;;;;;;5091852;28;20067;-61
2022/01/22 14:30:47;;;;;;;13.57;4.65;;;;;;;;;;5091374;28;20384;-61
2022/01/22 14:33:18;;;;;;;21.80;2.00;;;;;;;;;;5093183;28;20048;-61
2022/01/22 14:35:47;;;;;;;18.05;1.77;;;;;;;;;;5078673;28;20101;-61
2022/01/22 14:38:32;;;;;;;7.50;1.30;;;;;;;;;;5111575;28;20031;-61
2022/01/22 14:44:04;;;;;;;7.00;2.13;;;;;;;;;;5092757;28;20048;-61
2022/01/22 14:46:41;;;;;;;12.13;3.58;;;;;;;;;;5092718;28;20135;-61
2022/01/22 14:49:07;;;;;;;10.45;3.30;;;;;;;;;;5074470;28;20551;-61
2022/01/22 14:51:33;;;;;;;10.25;4.03;;;;;;;;;;5088507;28;20468;-61
2022/01/22 14:53:59;;;;;;;16.48;4.03;;;;;;;;;;5074974;28;20039;-61
2022/01/22 14:56:25;;;;;;;14.35;4.43;;;;;;;;;;5087885;28;20042;-61
2022/01/22 14:58:51;;;;;;;11.57;3.63;;;;;;;;;;5094878;28;20040;-61
2022/01/22 15:01:17;;;;;;;11.63;2.67;;;;;;;;;;5093407;28;20044;-61
2022/01/22 15:03:43;;;;;;;11.15;2.92;;;;;;;;;;5088376;28;20065;-63
2022/01/22 15:06:09;;;;;;;19.08;6.07;;;;;;;;;;5072333;28;20040;-61
2022/01/22 15:08:35;;;;;;;15.68;3.67;;;;;;;;;;5078811;28;20067;-58
2022/01/22 15:11:01;;;;;;;12.40;5.38;;;;;;;;;;5092680;28;20127;-61
2022/01/22 15:13:27;;;;;;;10.68;3.20;;;;;;;;;;5092775;28;20109;-62
2022/01/22 15:15:58;;;;;;;8.18;2.17;;;;;;;;;;5074442;28;20177;-61
2022/01/22 15:18:49;;;;;;;11.30;2.67;;;;;;;;;;5092046;28;20046;-61
2022/01/22 15:21:11;;;;;;;11.05;2.13;;;;;;;;;;5071596;28;20044;-61
2022/01/22 15:23:37;;;;;;;9.80;1.67;;;;;;;;;;5081571;28;20028;-61
2022/01/22 15:26:04;;;;;;;7.03;1.27;;;;;;;;;;5074518;28;20082;-61
2022/01/22 15:28:35;;;;;;;5.45;1.65;;;;;;;;;;5091931;28;20060;-61
2022/01/22 15:31:02;;;;;;;14.23;1.90;;;;;;;;;;5078309;28;20032;-61
2022/01/22 15:33:51;;;;;;;5.72;1.80;;;;;;;;;;5102980;28;20081;-61
2022/01/22 15:36:17;;;;;;;10.68;2.28;;;;;;;;;;5092588;28;20460;-61
2022/01/22 15:38:43;;;;;;;6.22;1.13;;;;;;;;;;5092064;28;20043;-61
2022/01/22 15:41:09;;;;;;;5.68;1.23;;;;;;;;;;5075178;28;20108;-62
2022/01/22 15:43:35;;;;;;;7.28;1.73;;;;;;;;;;5096072;28;20040;-61
2022/01/22 15:46:01;;;;;;;7.03;2.17;;;;;;;;;;5096151;28;20040;-61
2022/01/22 15:48:27;;;;;;;12.60;1.95;;;;;;;;;;5095122;28;20048;-61
2022/01/22 15:50:53;;;;;;;7.70;1.60;;;;;;;;;;5076831;28;20054;-61
2022/01/22 15:53:19;;;;;;;7.13;1.35;;;;;;;;;;5069491;28;20047;-61
2022/01/22 15:55:50;;;;;;;9.10;1.42;;;;;;;;;;5071531;28;20431;-61
2022/01/22 15:58:16;;;;;;;11.60;1.33;;;;;;;;;;5095731;28;20044;-61
2022/01/22 16:00:42;;;;;;;9.38;2.75;;;;;;;;;;5081666;28;20113;-61
2022/01/22 16:03:09;;;;;;;5.53;1.10;;;;;;;;;;5092789;28;20032;-62
2022/01/22 16:05:36;;;;;;;8.50;1.88;;;;;;;;;;5081657;28;20040;-61
2022/01/22 16:08:03;;;;;;;5.60;2.08;;;;;;;;;;5091862;28;20044;-61
2022/01/22 16:10:29;;;;;;;7.90;1.25;;;;;;;;;;5059133;28;20101;-61
2022/01/22 16:12:55;;;;;;;8.98;1.40;;;;;;;;;;5093683;28;20036;-61
2022/01/22 16:15:21;;;;;;;11.02;1.50;;;;;;;;;;5089754;28;20484;-62
2022/01/22 16:17:48;;;;;;;5.72;1.33;;;;;;;;;;5068397;28;20448;-61
2022/01/22 16:20:14;;;;;;;7.68;1.50;;;;;;;;;;5049374;28;20492;-62
2022/01/22 16:22:40;;;;;;;9.35;1.73;;;;;;;;;;5082993;28;20380;-61
2022/01/22 16:25:06;;;;;;;7.68;1.45;;;;;;;;;;5082839;28;20044;-61
2022/01/22 16:27:34;;;;;;;4.15;1.10;;;;;;;;;;5087569;28;20032;-62
2022/01/22 16:30:00;;;;;;;6.85;1.55;;;;;;;;;;5072622;28;20049;-57
2022/01/22 16:32:27;;;;;;;9.60;2.47;;;;;;;;;;5095855;28;20063;-61
2022/01/22 16:34:53;;;;;;;8.80;1.23;;;;;;;;;;5088819;28;20399;-61
2022/01/22 16:37:20;;;;;;;9.60;2.15;;;;;;;;;;5075388;28;20044;-61
2022/01/22 16:39:47;;;;;;;7.55;1.52;;;;;;;;;;5068375;28;20115;-61
2022/01/22 16:42:17;;;;;;;15.32;3.58;;;;;;;;;;5070803;28;20044;-61
2022/01/22 16:45:06;;;;;;;20.08;6.03;;;;;;;;;;5076088;28;20040;-61